sensor_id;sensor_type;location;lat;lon;timestamp;pressure;altitude;pressure_sealevel;temperature;humidity
50590;BME280;36547;50.514;30.840;2023-12-07T00:00:50;101150.26;;;-5.65;70.39
50590;BME280;36547;50.514;30.840;2023-12-07T00:01:53;101147.62;;;-5.67;70.41
50590;BME280;36547;50.514;30.840;2023-12-07T00:02:56;101145.13;;;-5.64;70.37
50590;BME280;36547;50.514;30.840;2023-12-07T00:03:58;101141.66;;;-5.64;70.31
50590;BME280;36547;50.514;30.840;2023-12-07T00:05:00;101151.20;;;-5.62;70.23
50590;BME280;36547;50.514;30.840;2023-12-07T00:06:03;101149.49;;;-5.61;70.14
50590;BME280;36547;50.514;30.840;2023-12-07T00:07:05;101148.76;;;-5.57;70.10
50590;BME280;36547;50.514;30.840;2023-12-07T00:08:11;101147.00;;;-5.58;69.98
50590;BME280;36547;50.514;30.840;2023-12-07T00:09:13;101150.42;;;-5.59;69.97
50590;BME280;36547;50.514;30.840;2023-12-07T00:10:16;101156.47;;;-5.59;69.96
50590;BME280;36547;50.514;30.840;2023-12-07T00:11:19;101156.42;;;-5.60;70.00
50590;BME280;36547;50.514;30.840;2023-12-07T00:12:21;101154.72;;;-5.60;70.03
50590;BME280;36547;50.514;30.840;2023-12-07T00:13:24;101163.36;;;-5.59;69.97
50590;BME280;36547;50.514;30.840;2023-12-07T00:14:26;101161.70;;;-5.57;69.97
50590;BME280;36547;50.514;30.840;2023-12-07T00:15:30;101155.50;;;-5.62;69.94
50590;BME280;36547;50.514;30.840;2023-12-07T00:16:32;101159.73;;;-5.66;70.05
50590;BME280;36547;50.514;30.840;2023-12-07T00:17:34;101162.27;;;-5.67;70.19
50590;BME280;36547;50.514;30.840;2023-12-07T00:18:37;101160.52;;;-5.68;70.21
50590;BME280;36547;50.514;30.840;2023-12-07T00:19:39;101155.34;;;-5.68;70.23
50590;BME280;36547;50.514;30.840;2023-12-07T00:20:41;101158.75;;;-5.70;70.22
50590;BME280;36547;50.514;30.840;2023-12-07T00:21:44;101163.93;;;-5.70;70.24
50590;BME280;36547;50.514;30.840;2023-12-07T00:22:45;101157.92;;;-5.68;70.35
50590;BME280;36547;50.514;30.840;2023-12-07T00:23:48;101161.30;;;-5.71;70.33
50590;BME280;36547;50.514;30.840;2023-12-07T00:24:50;101157.83;;;-5.72;70.31
50590;BME280;36547;50.514;30.840;2023-12-07T00:25:52;101173.36;;;-5.72;70.31
50590;BME280;36547;50.514;30.840;2023-12-07T00:28:10;101159.73;;;-5.66;70.48
50590;BME280;36547;50.514;30.840;2023-12-07T00:29:12;101170.67;;;-5.75;70.53
50590;BME280;36547;50.514;30.840;2023-12-07T00:30:14;101167.25;;;-5.74;70.47
50590;BME280;36547;50.514;30.840;2023-12-07T00:31:16;101163.83;;;-5.73;70.39
50590;BME280;36547;50.514;30.840;2023-12-07T00:32:18;101162.17;;;-5.71;70.42
50590;BME280;36547;50.514;30.840;2023-12-07T00:33:21;101167.45;;;-5.67;70.37
50590;BME280;36547;50.514;30.840;2023-12-07T00:34:23;101169.11;;;-5.70;70.26
50590;BME280;36547;50.514;30.840;2023-12-07T00:35:25;101163.05;;;-5.70;70.16
50590;BME280;36547;50.514;30.840;2023-12-07T00:36:29;101159.63;;;-5.69;70.17
50590;BME280;36547;50.514;30.840;2023-12-07T00:37:31;101166.47;;;-5.71;70.16
50590;BME280;36547;50.514;30.840;2023-12-07T00:38:34;101168.28;;;-5.68;70.20
50590;BME280;36547;50.514;30.840;2023-12-07T00:39:37;101163.93;;;-5.70;70.14
50590;BME280;36547;50.514;30.840;2023-12-07T00:40:39;101158.85;;;-5.66;70.09
50590;BME280;36547;50.514;30.840;2023-12-07T00:41:41;101162.37;;;-5.64;70.12
50590;BME280;36547;50.514;30.840;2023-12-07T00:42:43;101164.08;;;-5.65;70.04
50590;BME280;36547;50.514;30.840;2023-12-07T00:43:46;101160.61;;;-5.65;70.00
50590;BME280;36547;50.514;30.840;2023-12-07T00:44:48;101157.14;;;-5.66;69.98
50590;BME280;36547;50.514;30.840;2023-12-07T00:45:51;101158.95;;;-5.63;69.93
50590;BME280;36547;50.514;30.840;2023-12-07T00:46:53;101165.01;;;-5.63;69.94
50590;BME280;36547;50.514;30.840;2023-12-07T00:47:55;101164.12;;;-5.63;69.96
50590;BME280;36547;50.514;30.840;2023-12-07T00:48:57;101158.95;;;-5.63;69.96
50590;BME280;36547;50.514;30.840;2023-12-07T00:49:59;101160.61;;;-5.65;69.97
50590;BME280;36547;50.514;30.840;2023-12-07T00:51:02;101161.54;;;-5.63;70.00
50590;BME280;36547;50.514;30.840;2023-12-07T00:52:04;101165.01;;;-5.63;70.03
50590;BME280;36547;50.514;30.840;2023-12-07T00:53:07;101163.20;;;-5.65;70.04
50590;BME280;36547;50.514;30.840;2023-12-07T00:54:09;101165.79;;;-5.65;70.07
50590;BME280;36547;50.514;30.840;2023-12-07T00:55:12;101167.45;;;-5.67;70.08
50590;BME280;36547;50.514;30.840;2023-12-07T00:56:15;101167.45;;;-5.67;70.13
50590;BME280;36547;50.514;30.840;2023-12-07T00:57:17;101161.39;;;-5.68;70.19
50590;BME280;36547;50.514;30.840;2023-12-07T00:58:20;101172.63;;;-5.67;70.20
50590;BME280;36547;50.514;30.840;2023-12-07T00:59:22;101173.41;;;-5.70;70.21
50590;BME280;36547;50.514;30.840;2023-12-07T01:00:25;101170.87;;;-5.68;70.20
50590;BME280;36547;50.514;30.840;2023-12-07T01:01:28;101165.69;;;-5.68;70.32
50590;BME280;36547;50.514;30.840;2023-12-07T01:02:30;101172.63;;;-5.67;70.30
50590;BME280;36547;50.514;30.840;2023-12-07T01:03:32;101164.03;;;-5.66;70.29
50590;BME280;36547;50.514;30.840;2023-12-07T01:04:35;101162.37;;;-5.64;70.32
50590;BME280;36547;50.514;30.840;2023-12-07T01:05:37;101154.61;;;-5.64;70.22
50590;BME280;36547;50.514;30.840;2023-12-07T01:06:40;101156.27;;;-5.66;70.15
50590;BME280;36547;50.514;30.840;2023-12-07T01:07:42;101154.67;;;-5.61;70.13
50590;BME280;36547;50.514;30.840;2023-12-07T01:08:45;101153.78;;;-5.63;70.03
50590;BME280;36547;50.514;30.840;2023-12-07T01:09:47;101151.20;;;-5.62;70.02
50590;BME280;36547;50.514;30.840;2023-12-07T01:10:49;101153.84;;;-5.60;69.98
50590;BME280;36547;50.514;30.840;2023-12-07T01:11:51;101152.08;;;-5.61;69.90
50590;BME280;36547;50.514;30.840;2023-12-07T01:12:54;101150.32;;;-5.62;69.83
50590;BME280;36547;50.514;30.840;2023-12-07T01:13:56;101147.67;;;-5.65;69.81
50590;BME280;36547;50.514;30.840;2023-12-07T01:14:58;101152.02;;;-5.64;69.87
50590;BME280;36547;50.514;30.840;2023-12-07T01:16:01;101152.91;;;-5.62;69.90
50590;BME280;36547;50.514;30.840;2023-12-07T01:17:04;101148.50;;;-5.66;69.93
50590;BME280;36547;50.514;30.840;2023-12-07T01:18:06;101151.92;;;-5.67;69.97
50590;BME280;36547;50.514;30.840;2023-12-07T01:19:10;101147.72;;;-5.64;70.04
50590;BME280;36547;50.514;30.840;2023-12-07T01:20:13;101150.26;;;-5.65;69.94
50590;BME280;36547;50.514;30.840;2023-12-07T01:21:16;101145.86;;;-5.68;69.98
50590;BME280;36547;50.514;30.840;2023-12-07T01:22:18;101141.47;;;-5.71;69.95
50590;BME280;36547;50.514;30.840;2023-12-07T01:23:20;101150.94;;;-5.71;70.03
50590;BME280;36547;50.514;30.840;2023-12-07T01:24:22;101141.47;;;-5.71;70.06
50590;BME280;36547;50.514;30.840;2023-12-07T01:25:25;101140.49;;;-5.74;70.07
50590;BME280;36547;50.514;30.840;2023-12-07T01:26:28;101131.90;;;-5.73;70.10
50590;BME280;36547;50.514;30.840;2023-12-07T01:27:30;101137.02;;;-5.75;70.09
50590;BME280;36547;50.514;30.840;2023-12-07T01:28:32;101142.20;;;-5.75;70.12
50590;BME280;36547;50.514;30.840;2023-12-07T01:29:35;101137.84;;;-5.77;70.12
50590;BME280;36547;50.514;30.840;2023-12-07T01:30:37;101134.38;;;-5.78;70.14
50590;BME280;36547;50.514;30.840;2023-12-07T01:31:40;101137.86;;;-5.76;70.13
50590;BME280;36547;50.514;30.840;2023-12-07T01:32:42;101137.91;;;-5.74;70.12
50590;BME280;36547;50.514;30.840;2023-12-07T01:33:44;101143.03;;;-5.76;70.03
50590;BME280;36547;50.514;30.840;2023-12-07T01:34:47;101134.48;;;-5.73;70.03
50590;BME280;36547;50.514;30.840;2023-12-07T01:35:51;101138.78;;;-5.74;69.99
50590;BME280;36547;50.514;30.840;2023-12-07T01:36:53;101131.90;;;-5.73;69.99
50590;BME280;36547;50.514;30.840;2023-12-07T01:37:55;101139.61;;;-5.75;70.02
50590;BME280;36547;50.514;30.840;2023-12-07T01:38:58;101136.09;;;-5.77;69.99
50590;BME280;36547;50.514;30.840;2023-12-07T01:40:01;101139.61;;;-5.75;69.94
50590;BME280;36547;50.514;30.840;2023-12-07T01:41:04;101134.38;;;-5.78;69.90
50590;BME280;36547;50.514;30.840;2023-12-07T01:42:08;101135.98;;;-5.81;69.95
50590;BME280;36547;50.514;30.840;2023-12-07T01:43:10;101142.87;;;-5.82;70.07
50590;BME280;36547;50.514;30.840;2023-12-07T01:44:12;101136.72;;;-5.85;70.09
50590;BME280;36547;50.514;30.840;2023-12-07T01:45:14;101137.59;;;-5.85;70.14
50590;BME280;36547;50.514;30.840;2023-12-07T01:46:18;101146.19;;;-5.86;70.14
50590;BME280;36547;50.514;30.840;2023-12-07T01:47:20;101145.36;;;-5.85;70.13
50590;BME280;36547;50.514;30.840;2023-12-07T01:48:24;101146.19;;;-5.86;70.08
50590;BME280;36547;50.514;30.840;2023-12-07T01:49:29;101141.83;;;-5.88;70.08
50590;BME280;36547;50.514;30.840;2023-12-07T01:50:32;101140.95;;;-5.89;70.09
50590;BME280;36547;50.514;30.840;2023-12-07T01:51:35;101139.23;;;-5.88;70.12
50590;BME280;36547;50.514;30.840;2023-12-07T01:52:40;101147.06;;;-5.85;70.12
50590;BME280;36547;50.514;30.840;2023-12-07T01:53:43;101137.55;;;-5.86;70.06
50590;BME280;36547;50.514;30.840;2023-12-07T01:54:46;101143.59;;;-5.86;69.98
50590;BME280;36547;50.514;30.840;2023-12-07T01:55:49;101139.35;;;-5.84;70.02
50590;BME280;36547;50.514;30.840;2023-12-07T01:56:52;101141.11;;;-5.83;69.97
50590;BME280;36547;50.514;30.840;2023-12-07T01:57:55;101146.19;;;-5.86;69.84
50590;BME280;36547;50.514;30.840;2023-12-07T01:58:57;101144.42;;;-5.87;69.85
50590;BME280;36547;50.514;30.840;2023-12-07T02:00:00;101151.30;;;-5.89;69.89
50590;BME280;36547;50.514;30.840;2023-12-07T02:01:05;101148.66;;;-5.90;69.91
50590;BME280;36547;50.514;30.840;2023-12-07T02:02:08;101151.23;;;-5.92;69.93
50590;BME280;36547;50.514;30.840;2023-12-07T02:03:11;101146.05;;;-5.92;69.93
50590;BME280;36547;50.514;30.840;2023-12-07T02:04:14;101143.36;;;-5.95;69.96
50590;BME280;36547;50.514;30.840;2023-12-07T02:05:17;101147.61;;;-5.97;69.98
50590;BME280;36547;50.514;30.840;2023-12-07T02:06:19;101142.44;;;-5.97;69.99
50590;BME280;36547;50.514;30.840;2023-12-07T02:07:26;101137.21;;;-5.98;70.02
50590;BME280;36547;50.514;30.840;2023-12-07T02:08:29;101144.09;;;-5.99;70.03
50590;BME280;36547;50.514;30.840;2023-12-07T02:09:31;101131.11;;;-6.00;70.08
50590;BME280;36547;50.514;30.840;2023-12-07T02:10:35;101143.99;;;-6.02;70.02
50590;BME280;36547;50.514;30.840;2023-12-07T02:11:37;101142.16;;;-6.06;70.19
50590;BME280;36547;50.514;30.840;2023-12-07T02:12:39;101133.53;;;-6.07;70.28
50590;BME280;36547;50.514;30.840;2023-12-07T02:13:42;101136.89;;;-6.09;70.29
50590;BME280;36547;50.514;30.840;2023-12-07T02:14:45;101136.89;;;-6.09;70.38
50590;BME280;36547;50.514;30.840;2023-12-07T02:15:48;101130.02;;;-6.09;70.46
50590;BME280;36547;50.514;30.840;2023-12-07T02:16:57;101136.01;;;-6.10;70.41
50590;BME280;36547;50.514;30.840;2023-12-07T02:18:21;101132.59;;;-6.09;70.43
50590;BME280;36547;50.514;30.840;2023-12-07T02:22:07;101140.88;;;-5.92;70.43
50590;BME280;36547;50.514;30.840;2023-12-07T02:23:08;101145.37;;;-6.13;70.51
50590;BME280;36547;50.514;30.840;2023-12-07T02:24:11;101140.36;;;-6.09;70.58
50590;BME280;36547;50.514;30.840;2023-12-07T02:25:18;101142.84;;;-6.12;70.40
50590;BME280;36547;50.514;30.840;2023-12-07T02:26:22;101146.36;;;-6.10;70.35
50590;BME280;36547;50.514;30.840;2023-12-07T02:28:51;101140.88;;;-5.92;70.36
50590;BME280;36547;50.514;30.840;2023-12-07T02:29:53;101141.08;;;-6.13;70.46
50590;BME280;36547;50.514;30.840;2023-12-07T02:30:56;101138.65;;;-6.08;70.39
50590;BME280;36547;50.514;30.840;2023-12-07T02:31:59;101142.16;;;-6.06;70.17
50590;BME280;36547;50.514;30.840;2023-12-07T02:33:01;101142.16;;;-6.06;70.00
50590;BME280;36547;50.514;30.840;2023-12-07T02:34:04;101133.55;;;-6.05;69.98
50590;BME280;36547;50.514;30.840;2023-12-07T02:35:07;101130.06;;;-6.07;69.98
50590;BME280;36547;50.514;30.840;2023-12-07T02:36:13;101136.13;;;-6.05;69.90
50590;BME280;36547;50.514;30.840;2023-12-07T02:37:18;101137.84;;;-6.06;69.82
50590;BME280;36547;50.514;30.840;2023-12-07T02:38:23;101136.89;;;-6.09;69.72
50590;BME280;36547;50.514;30.840;2023-12-07T02:39:27;101141.28;;;-6.07;69.74
50590;BME280;36547;50.514;30.840;2023-12-07T02:40:30;101142.06;;;-6.09;69.77
50590;BME280;36547;50.514;30.840;2023-12-07T02:41:34;101139.38;;;-6.12;69.74
50590;BME280;36547;50.514;30.840;2023-12-07T02:42:38;101134.25;;;-6.11;69.79
50590;BME280;36547;50.514;30.840;2023-12-07T02:43:41;101145.48;;;-6.10;69.73
50590;BME280;36547;50.514;30.840;2023-12-07T02:44:44;101141.86;;;-6.15;69.66
50590;BME280;36547;50.514;30.840;2023-12-07T02:45:46;101144.39;;;-6.17;69.72
50590;BME280;36547;50.514;30.840;2023-12-07T02:46:50;101133.06;;;-6.20;69.70
50590;BME280;36547;50.514;30.840;2023-12-07T02:47:52;101145.98;;;-6.22;69.83
50590;BME280;36547;50.514;30.840;2023-12-07T02:48:57;101145.09;;;-6.22;70.08
50590;BME280;36547;50.514;30.840;2023-12-07T02:49:59;101145.92;;;-6.23;70.16
50590;BME280;36547;50.514;30.840;2023-12-07T02:51:02;101144.99;;;-6.25;70.05
50590;BME280;36547;50.514;30.840;2023-12-07T02:52:05;101146.75;;;-6.24;70.00
50590;BME280;36547;50.514;30.840;2023-12-07T02:53:07;101142.36;;;-6.27;69.96
50590;BME280;36547;50.514;30.840;2023-12-07T02:54:10;101149.28;;;-6.26;70.06
50590;BME280;36547;50.514;30.840;2023-12-07T02:55:12;101145.72;;;-6.29;70.11
50590;BME280;36547;50.514;30.840;2023-12-07T02:56:15;101144.89;;;-6.28;70.09
50590;BME280;36547;50.514;30.840;2023-12-07T02:57:18;101143.13;;;-6.29;70.10
50590;BME280;36547;50.514;30.840;2023-12-07T02:58:21;101146.55;;;-6.30;70.09
50590;BME280;36547;50.514;30.840;2023-12-07T02:59:23;101146.65;;;-6.27;70.15
50590;BME280;36547;50.514;30.840;2023-12-07T03:00:25;101141.48;;;-6.27;70.08
50590;BME280;36547;50.514;30.840;2023-12-07T03:01:28;101140.55;;;-6.29;70.02
50590;BME280;36547;50.514;30.840;2023-12-07T03:02:31;101142.30;;;-6.28;70.07
50590;BME280;36547;50.514;30.840;2023-12-07T03:03:33;101138.06;;;-6.26;70.08
50590;BME280;36547;50.514;30.840;2023-12-07T03:04:36;101141.48;;;-6.27;69.94
50590;BME280;36547;50.514;30.840;2023-12-07T03:05:38;101141.58;;;-6.24;69.93
50590;BME280;36547;50.514;30.840;2023-12-07T03:06:41;101142.36;;;-6.27;69.86
50590;BME280;36547;50.514;30.840;2023-12-07T03:07:43;101146.65;;;-6.27;69.90
50590;BME280;36547;50.514;30.840;2023-12-07T03:08:45;101136.41;;;-6.24;69.93
50590;BME280;36547;50.514;30.840;2023-12-07T03:09:47;101140.65;;;-6.26;69.84
50590;BME280;36547;50.514;30.840;2023-12-07T03:10:49;101141.48;;;-6.27;69.77
50590;BME280;36547;50.514;30.840;2023-12-07T03:11:52;101141.48;;;-6.27;69.73
50590;BME280;36547;50.514;30.840;2023-12-07T03:12:54;101137.08;;;-6.30;69.73
50590;BME280;36547;50.514;30.840;2023-12-07T03:13:57;101141.38;;;-6.30;69.81
50590;BME280;36547;50.514;30.840;2023-12-07T03:14:59;101138.78;;;-6.30;69.87
50590;BME280;36547;50.514;30.840;2023-12-07T03:16:07;101141.38;;;-6.30;69.87
50590;BME280;36547;50.514;30.840;2023-12-07T03:17:08;101142.95;;;-6.35;69.82
50590;BME280;36547;50.514;30.840;2023-12-07T03:18:11;101153.19;;;-6.38;69.94
50590;BME280;36547;50.514;30.840;2023-12-07T03:19:14;101153.19;;;-6.38;70.01
50590;BME280;36547;50.514;30.840;2023-12-07T03:20:17;101146.16;;;-6.43;70.10
50590;BME280;36547;50.514;30.840;2023-12-07T03:21:19;101147.80;;;-6.45;70.11
50590;BME280;36547;50.514;30.840;2023-12-07T03:22:22;101152.87;;;-6.48;70.10
50590;BME280;36547;50.514;30.840;2023-12-07T03:23:24;101154.63;;;-6.47;70.18
50590;BME280;36547;50.514;30.840;2023-12-07T03:24:27;101157.16;;;-6.48;70.25
50590;BME280;36547;50.514;30.840;2023-12-07T03:25:29;101155.45;;;-6.48;70.31
50590;BME280;36547;50.514;30.840;2023-12-07T03:26:31;101156.38;;;-6.46;70.39
50590;BME280;36547;50.514;30.840;2023-12-07T03:27:34;101155.50;;;-6.46;70.27
50590;BME280;36547;50.514;30.840;2023-12-07T03:28:36;101158.20;;;-6.43;70.21
50590;BME280;36547;50.514;30.840;2023-12-07T03:29:38;101147.80;;;-6.45;70.14
50590;BME280;36547;50.514;30.840;2023-12-07T03:30:40;101158.14;;;-6.45;70.12
50590;BME280;36547;50.514;30.840;2023-12-07T03:31:43;101153.03;;;-6.43;70.17
50590;BME280;36547;50.514;30.840;2023-12-07T03:32:45;101149.67;;;-6.40;70.23
50590;BME280;36547;50.514;30.840;2023-12-07T03:33:47;101149.78;;;-6.37;70.15
50590;BME280;36547;50.514;30.840;2023-12-07T03:34:50;101149.72;;;-6.39;70.03
50590;BME280;36547;50.514;30.840;2023-12-07T03:35:52;101149.67;;;-6.40;70.05
50590;BME280;36547;50.514;30.840;2023-12-07T03:36:55;101148.02;;;-6.38;70.04
50590;BME280;36547;50.514;30.840;2023-12-07T03:37:57;101154.06;;;-6.38;69.98
50590;BME280;36547;50.514;30.840;2023-12-07T03:38:59;101145.48;;;-6.37;70.04
50590;BME280;36547;50.514;30.840;2023-12-07T03:40:02;101154.79;;;-6.42;70.04
50590;BME280;36547;50.514;30.840;2023-12-07T03:41:04;101157.48;;;-6.39;70.10
50590;BME280;36547;50.514;30.840;2023-12-07T03:42:07;101156.70;;;-6.36;70.12
50590;BME280;36547;50.514;30.840;2023-12-07T03:43:11;101161.00;;;-6.37;70.09
50590;BME280;36547;50.514;30.840;2023-12-07T03:44:16;101154.12;;;-6.36;70.08
50590;BME280;36547;50.514;30.840;2023-12-07T03:45:19;101151.48;;;-6.38;70.13
50590;BME280;36547;50.514;30.840;2023-12-07T03:46:21;101159.34;;;-6.35;70.20
50590;BME280;36547;50.514;30.840;2023-12-07T03:47:24;101155.02;;;-6.34;70.05
50590;BME280;36547;50.514;30.840;2023-12-07T03:48:26;101155.02;;;-6.34;70.01
50590;BME280;36547;50.514;30.840;2023-12-07T03:49:28;101151.53;;;-6.36;70.00
50590;BME280;36547;50.514;30.840;2023-12-07T03:50:31;101149.00;;;-6.35;70.03
50590;BME280;36547;50.514;30.840;2023-12-07T03:51:33;101151.61;;;-6.33;70.05
50590;BME280;36547;50.514;30.840;2023-12-07T03:52:36;101146.55;;;-6.30;70.05
50590;BME280;36547;50.514;30.840;2023-12-07T03:53:38;101146.44;;;-6.33;70.01
50590;BME280;36547;50.514;30.840;2023-12-07T03:54:40;101148.20;;;-6.32;70.01
50590;BME280;36547;50.514;30.840;2023-12-07T03:55:42;101146.55;;;-6.30;70.01
50590;BME280;36547;50.514;30.840;2023-12-07T03:56:45;101149.23;;;-6.27;69.94
50590;BME280;36547;50.514;30.840;2023-12-07T03:57:47;101144.89;;;-6.28;69.83
50590;BME280;36547;50.514;30.840;2023-12-07T03:58:49;101145.72;;;-6.29;69.84
50590;BME280;36547;50.514;30.840;2023-12-07T03:59:52;101151.77;;;-6.29;69.87
50590;BME280;36547;50.514;30.840;2023-12-07T04:00:54;101152.59;;;-6.30;69.82
50590;BME280;36547;50.514;30.840;2023-12-07T04:01:56;101146.65;;;-6.27;69.88
50590;BME280;36547;50.514;30.840;2023-12-07T04:02:58;101154.25;;;-6.32;69.94
50590;BME280;36547;50.514;30.840;2023-12-07T04:04:01;101146.55;;;-6.30;69.99
50590;BME280;36547;50.514;30.840;2023-12-07T04:05:03;101149.84;;;-6.34;69.97
50590;BME280;36547;50.514;30.840;2023-12-07T04:06:07;101149.91;;;-6.33;69.96
50590;BME280;36547;50.514;30.840;2023-12-07T04:07:09;101149.83;;;-6.36;69.99
50590;BME280;36547;50.514;30.840;2023-12-07T04:08:12;101155.72;;;-6.40;70.09
50590;BME280;36547;50.514;30.840;2023-12-07T04:09:14;101154.73;;;-6.44;70.14
50590;BME280;36547;50.514;30.840;2023-12-07T04:10:17;101148.58;;;-6.47;70.11
50590;BME280;36547;50.514;30.840;2023-12-07T04:11:19;101154.63;;;-6.47;70.19
50590;BME280;36547;50.514;30.840;2023-12-07T04:12:21;101154.55;;;-6.50;70.23
50590;BME280;36547;50.514;30.840;2023-12-07T04:13:24;101158.79;;;-6.52;70.28
50590;BME280;36547;50.514;30.840;2023-12-07T04:14:27;101159.67;;;-6.51;70.32
50590;BME280;36547;50.514;30.840;2023-12-07T04:15:29;101157.08;;;-6.51;70.36
50590;BME280;36547;50.514;30.840;2023-12-07T04:16:31;101155.33;;;-6.52;70.33
50590;BME280;36547;50.514;30.840;2023-12-07T04:17:34;101151.86;;;-6.53;70.37
50590;BME280;36547;50.514;30.840;2023-12-07T04:18:36;101154.45;;;-6.53;70.29
50590;BME280;36547;50.514;30.840;2023-12-07T04:19:38;101152.69;;;-6.54;70.25
50590;BME280;36547;50.514;30.840;2023-12-07T04:20:42;101155.33;;;-6.52;70.28
50590;BME280;36547;50.514;30.840;2023-12-07T04:21:44;101152.73;;;-6.52;70.18
50590;BME280;36547;50.514;30.840;2023-12-07T04:22:46;101161.38;;;-6.52;70.15
50590;BME280;36547;50.514;30.840;2023-12-07T04:23:49;101151.91;;;-6.51;70.08
50590;BME280;36547;50.514;30.840;2023-12-07T04:24:51;101156.20;;;-6.52;70.00
50590;BME280;36547;50.514;30.840;2023-12-07T04:25:53;101154.45;;;-6.53;69.99
50590;BME280;36547;50.514;30.840;2023-12-07T04:26:56;101161.38;;;-6.52;69.95
50590;BME280;36547;50.514;30.840;2023-12-07T04:27:59;101159.72;;;-6.50;70.01
50590;BME280;36547;50.514;30.840;2023-12-07T04:29:01;101164.89;;;-6.50;69.97
50590;BME280;36547;50.514;30.840;2023-12-07T04:30:05;101158.84;;;-6.50;69.90
50590;BME280;36547;50.514;30.840;2023-12-07T04:31:07;101158.04;;;-6.48;69.89
50590;BME280;36547;50.514;30.840;2023-12-07T04:32:10;101155.44;;;-6.49;69.93
50590;BME280;36547;50.514;30.840;2023-12-07T04:33:12;101155.27;;;-6.54;69.97
50590;BME280;36547;50.514;30.840;2023-12-07T04:34:15;101154.34;;;-6.56;69.96
50590;BME280;36547;50.514;30.840;2023-12-07T04:35:17;101162.09;;;-6.56;69.97
50590;BME280;36547;50.514;30.840;2023-12-07T04:36:20;101149.06;;;-6.59;70.06
50590;BME280;36547;50.514;30.840;2023-12-07T04:37:22;101155.87;;;-6.61;70.05
50590;BME280;36547;50.514;30.840;2023-12-07T04:38:24;101151.48;;;-6.63;70.09
50590;BME280;36547;50.514;30.840;2023-12-07T04:39:27;101153.23;;;-6.62;70.17
50590;BME280;36547;50.514;30.840;2023-12-07T04:40:29;101154.05;;;-6.65;70.16
50590;BME280;36547;50.514;30.840;2023-12-07T04:41:31;101152.28;;;-6.66;70.16
50590;BME280;36547;50.514;30.840;2023-12-07T04:42:34;101162.67;;;-6.64;70.15
50590;BME280;36547;50.514;30.840;2023-12-07T04:43:36;101150.53;;;-6.67;70.10
50590;BME280;36547;50.514;30.840;2023-12-07T04:44:38;101154.87;;;-6.66;70.12
50590;BME280;36547;50.514;30.840;2023-12-07T04:45:42;101148.87;;;-6.65;70.10
50590;BME280;36547;50.514;30.840;2023-12-07T04:46:44;101157.45;;;-6.66;70.14
50590;BME280;36547;50.514;30.840;2023-12-07T04:47:46;101157.53;;;-6.63;70.10
50590;BME280;36547;50.514;30.840;2023-12-07T04:48:49;101161.88;;;-6.62;70.00
50590;BME280;36547;50.514;30.840;2023-12-07T04:49:51;101161.81;;;-6.63;69.92
50590;BME280;36547;50.514;30.840;2023-12-07T04:50:55;101157.53;;;-6.63;69.91
50590;BME280;36547;50.514;30.840;2023-12-07T04:51:57;101161.69;;;-6.68;69.91
50590;BME280;36547;50.514;30.840;2023-12-07T04:52:59;101153.94;;;-6.68;69.98
50590;BME280;36547;50.514;30.840;2023-12-07T04:54:02;101155.70;;;-6.67;69.95
50590;BME280;36547;50.514;30.840;2023-12-07T04:55:06;101158.99;;;-6.71;69.90
50590;BME280;36547;50.514;30.840;2023-12-07T04:56:10;101155.47;;;-6.73;69.99
50590;BME280;36547;50.514;30.840;2023-12-07T04:57:12;101158.99;;;-6.71;70.01
50590;BME280;36547;50.514;30.840;2023-12-07T04:58:15;101156.30;;;-6.74;69.99
50590;BME280;36547;50.514;30.840;2023-12-07T04:59:18;101151.95;;;-6.75;70.01
50590;BME280;36547;50.514;30.840;2023-12-07T05:00:21;101155.28;;;-6.79;69.98
50590;BME280;36547;50.514;30.840;2023-12-07T05:01:23;101160.34;;;-6.82;70.01
50590;BME280;36547;50.514;30.840;2023-12-07T05:02:25;101159.52;;;-6.81;70.09
50590;BME280;36547;50.514;30.840;2023-12-07T05:03:28;101155.94;;;-6.85;70.07
50590;BME280;36547;50.514;30.840;2023-12-07T05:04:30;101159.46;;;-6.83;70.08
50590;BME280;36547;50.514;30.840;2023-12-07T05:05:32;101155.17;;;-6.82;70.10
50590;BME280;36547;50.514;30.840;2023-12-07T05:06:34;101162.87;;;-6.84;70.06
50590;BME280;36547;50.514;30.840;2023-12-07T05:07:37;101162.10;;;-6.81;70.11
50590;BME280;36547;50.514;30.840;2023-12-07T05:08:39;101164.62;;;-6.83;70.01
50590;BME280;36547;50.514;30.840;2023-12-07T05:09:42;101162.87;;;-6.84;70.04
50590;BME280;36547;50.514;30.840;2023-12-07T05:10:45;101168.09;;;-6.82;70.05
50590;BME280;36547;50.514;30.840;2023-12-07T05:11:47;101167.27;;;-6.81;70.02
50590;BME280;36547;50.514;30.840;2023-12-07T05:12:50;101168.91;;;-6.83;69.94
50590;BME280;36547;50.514;30.840;2023-12-07T05:13:52;101168.91;;;-6.83;69.89
50590;BME280;36547;50.514;30.840;2023-12-07T05:14:55;101168.20;;;-6.79;69.87
50590;BME280;36547;50.514;30.840;2023-12-07T05:15:57;101164.73;;;-6.80;69.79
50590;BME280;36547;50.514;30.840;2023-12-07T05:16:59;101167.38;;;-6.78;69.76
50590;BME280;36547;50.514;30.840;2023-12-07T05:18:03;101176.86;;;-6.77;69.68
50590;BME280;36547;50.514;30.840;2023-12-07T05:19:06;101175.84;;;-6.82;69.68
50590;BME280;36547;50.514;30.840;2023-12-07T05:20:09;101179.95;;;-6.87;69.78
50590;BME280;36547;50.514;30.840;2023-12-07T05:21:12;101180.89;;;-6.85;69.86
50590;BME280;36547;50.514;30.840;2023-12-07T05:22:14;101180.89;;;-6.85;69.87
50590;BME280;36547;50.514;30.840;2023-12-07T05:23:17;101176.37;;;-6.91;69.84
50590;BME280;36547;50.514;30.840;2023-12-07T05:24:20;101181.41;;;-6.95;69.96
50590;BME280;36547;50.514;30.840;2023-12-07T05:25:22;101175.30;;;-6.97;69.95
50590;BME280;36547;50.514;30.840;2023-12-07T05:26:24;101177.89;;;-6.97;70.05
50590;BME280;36547;50.514;30.840;2023-12-07T05:27:26;101180.36;;;-7.00;70.09
50590;BME280;36547;50.514;30.840;2023-12-07T05:28:29;101175.90;;;-7.04;70.17
50590;BME280;36547;50.514;30.840;2023-12-07T05:29:31;101174.96;;;-7.06;70.28